Terminal Aerodrome Forecast
Issued by NWS Wilmington, NC

Home | Current Version | Previous Version | Text Only | Print | Product List | Glossary On
Versions: 1 2 3 4 5 6 7 8 9 10 11 12 13 14 15 16 17 18 19 20 21 22 23 24 25
000
FTUS42 KILM 230917 CCA
TAFLBT
TAF COR
KLBT 230917Z 2309/2406 21006KT P6SM BKN012
      TEMPO 2309/2312 3SM BR SCT012
     FM231600 26007KT P6SM VCTS BKN035CB
     FM231800 24007KT P6SM -SHRA VCTS BKN035CB
     FM240100 23005KT P6SM BKN080=

USA.gov is the U.S. government's official web portal to all federal, state and local government web resources and services.